createdAt,value
2019-06-20T00:01:22.815Z,20.30
2019-06-20T00:03:51.377Z,20.30
2019-06-20T00:06:20.061Z,20.20
2019-06-20T00:08:48.640Z,20.20
2019-06-20T00:11:17.205Z,20.10
2019-06-20T00:13:45.767Z,20.10
2019-06-20T00:16:14.375Z,20.00
2019-06-20T00:18:42.918Z,19.80
2019-06-20T00:21:11.591Z,19.80
2019-06-20T00:23:40.175Z,19.80
2019-06-20T00:26:08.738Z,19.80
2019-06-20T00:28:37.306Z,19.90
2019-06-20T00:31:05.857Z,19.80
2019-06-20T00:33:34.415Z,19.70
2019-06-20T00:36:03.047Z,19.80
2019-06-20T00:38:32.949Z,19.70
2019-06-20T00:41:01.494Z,19.80
2019-06-20T00:43:30.175Z,19.80
2019-06-20T00:45:58.719Z,19.70
2019-06-20T00:48:27.283Z,19.60
2019-06-20T00:50:55.855Z,19.70
2019-06-20T00:53:24.416Z,19.80
2019-06-20T00:55:53.045Z,19.70
2019-06-20T00:58:21.735Z,19.70
2019-06-20T01:00:50.294Z,19.60
2019-06-20T01:03:18.918Z,19.60
2019-06-20T01:05:47.482Z,19.70
2019-06-20T01:08:16.046Z,19.70
2019-06-20T01:10:44.665Z,19.70
2019-06-20T01:13:13.364Z,19.70
2019-06-20T01:15:41.927Z,19.70
2019-06-20T01:18:10.481Z,19.70
2019-06-20T01:20:39.123Z,19.60
2019-06-20T01:23:07.690Z,19.70
2019-06-20T01:25:38.890Z,19.70
2019-06-20T01:28:09.026Z,19.70
2019-06-20T01:30:37.731Z,19.70
2019-06-20T01:33:07.427Z,19.70
2019-06-20T01:35:36.077Z,19.70
2019-06-20T01:38:04.776Z,19.60
2019-06-20T01:40:33.335Z,19.60
2019-06-20T01:43:02.646Z,19.70
2019-06-20T01:45:31.206Z,19.60
2019-06-20T01:47:59.772Z,19.60
2019-06-20T01:50:28.346Z,19.60
2019-06-20T01:52:56.887Z,19.50
2019-06-20T01:55:25.484Z,19.50
2019-06-20T01:57:54.205Z,19.60
2019-06-20T02:00:34.782Z,19.50
2019-06-20T02:03:03.396Z,19.50
2019-06-20T02:05:31.961Z,19.40
2019-06-20T02:08:00.525Z,19.40
2019-06-20T02:10:29.195Z,19.30
2019-06-20T02:12:57.743Z,19.20
2019-06-20T02:15:26.382Z,19.20
2019-06-20T02:17:54.962Z,19.20
2019-06-20T02:20:32.085Z,19.10
2019-06-20T02:23:00.642Z,19.10
2019-06-20T02:25:29.355Z,19.10
2019-06-20T02:27:57.992Z,19.00
2019-06-20T02:30:26.783Z,18.90
2019-06-20T02:32:55.489Z,18.90
2019-06-20T02:35:24.296Z,18.90
2019-06-20T02:37:53.054Z,18.90
2019-06-20T02:40:22.232Z,18.90
2019-06-20T02:42:50.881Z,18.90
2019-06-20T02:45:19.745Z,18.90
2019-06-20T02:47:48.385Z,18.90
2019-06-20T02:50:17.813Z,18.90
2019-06-20T02:52:46.506Z,18.90
2019-06-20T02:55:15.295Z,18.90
2019-06-20T02:57:43.878Z,18.90
2019-06-20T03:00:13.478Z,18.90
2019-06-20T03:02:42.030Z,19.00
2019-06-20T03:05:11.723Z,19.00
2019-06-20T03:07:40.300Z,18.90
2019-06-20T03:10:09.378Z,19.00
2019-06-20T03:12:38.062Z,18.90
2019-06-20T03:15:07.846Z,19.00
2019-06-20T03:17:36.403Z,19.00
2019-06-20T03:20:06.726Z,19.00
2019-06-20T03:22:35.275Z,19.00
2019-06-20T03:25:05.243Z,19.10
2019-06-20T03:27:33.815Z,19.00
2019-06-20T03:30:02.390Z,19.10
2019-06-20T03:32:31.144Z,19.10
2019-06-20T03:34:59.766Z,19.00
2019-06-20T03:37:28.334Z,19.00
2019-06-20T03:39:56.906Z,19.00
2019-06-20T03:42:25.684Z,19.00
2019-06-20T03:45:02.172Z,19.00
2019-06-20T03:47:24.503Z,19.10
2019-06-20T03:49:53.076Z,18.90
2019-06-20T03:52:21.631Z,19.00
2019-06-20T03:54:50.190Z,19.00
2019-06-20T03:57:18.763Z,19.10
2019-06-20T03:59:47.319Z,19.00
2019-06-20T04:02:15.945Z,19.00
2019-06-20T04:04:44.519Z,19.00
2019-06-20T04:07:13.067Z,19.00
2019-06-20T04:09:41.629Z,19.00
2019-06-20T04:12:10.195Z,19.10
2019-06-20T04:14:38.758Z,19.10
2019-06-20T04:17:07.329Z,19.10
2019-06-20T04:19:35.927Z,19.00
2019-06-20T04:22:04.546Z,19.00
2019-06-20T04:24:33.102Z,19.00
2019-06-20T04:27:01.682Z,19.10
2019-06-20T04:29:30.319Z,19.10
2019-06-20T04:31:58.872Z,18.80
2019-06-20T04:34:27.506Z,18.90
2019-06-20T04:36:56.072Z,18.70
2019-06-20T04:39:24.629Z,18.70
2019-06-20T04:41:53.266Z,18.80
2019-06-20T04:44:21.819Z,18.90
2019-06-20T04:46:52.012Z,19.00
2019-06-20T04:49:20.576Z,19.10
2019-06-20T04:51:49.126Z,19.20
2019-06-20T04:54:17.827Z,19.40
2019-06-20T04:56:46.487Z,19.40
2019-06-20T04:59:15.047Z,19.50
2019-06-20T05:01:43.684Z,19.50
2019-06-20T05:04:12.336Z,19.50
2019-06-20T05:06:42.797Z,19.40
2019-06-20T05:09:11.423Z,19.40
2019-06-20T05:11:40.001Z,19.50
2019-06-20T05:14:08.551Z,19.60
2019-06-20T05:16:37.162Z,19.70
2019-06-20T05:19:05.690Z,19.60
2019-06-20T05:21:34.394Z,19.40
2019-06-20T05:24:02.918Z,19.60
2019-06-20T05:26:31.487Z,19.60
2019-06-20T05:29:00.059Z,19.70
2019-06-20T05:31:28.607Z,19.80
2019-06-20T05:33:57.171Z,19.70
2019-06-20T05:36:25.790Z,19.70
2019-06-20T05:38:54.426Z,19.70
2019-06-20T05:41:22.972Z,19.90
2019-06-20T05:43:51.569Z,19.80
2019-06-20T05:46:20.109Z,19.90
2019-06-20T05:48:48.742Z,19.90
2019-06-20T05:51:17.289Z,19.90
2019-06-20T05:53:45.858Z,19.90
2019-06-20T05:56:14.484Z,19.90
2019-06-20T05:58:43.047Z,19.90
2019-06-20T06:01:11.832Z,20.00
2019-06-20T06:03:40.621Z,20.10
2019-06-20T06:06:09.313Z,20.30
2019-06-20T06:08:37.841Z,20.40
2019-06-20T06:11:06.857Z,20.70
2019-06-20T06:13:35.728Z,20.70
2019-06-20T06:16:04.543Z,20.30
2019-06-20T06:18:33.102Z,20.10
2019-06-20T06:21:01.687Z,19.90
2019-06-20T06:23:30.265Z,19.90
2019-06-20T06:25:58.970Z,20.00
2019-06-20T06:28:27.604Z,20.10
2019-06-20T06:30:56.152Z,20.20
2019-06-20T06:33:25.095Z,20.10
2019-06-20T06:35:53.743Z,20.20
2019-06-20T06:38:22.511Z,20.30
2019-06-20T06:40:51.423Z,20.20
2019-06-20T06:43:19.970Z,20.10
2019-06-20T06:45:48.520Z,19.90
2019-06-20T06:48:17.174Z,19.70
2019-06-20T06:50:45.743Z,19.60
2019-06-20T06:53:14.304Z,19.50
2019-06-20T06:55:42.886Z,19.30
2019-06-20T06:58:11.456Z,19.20
2019-06-20T07:00:40.012Z,18.80
2019-06-20T07:03:08.570Z,18.90
2019-06-20T07:05:37.203Z,19.00
2019-06-20T07:08:05.743Z,18.80
2019-06-20T07:10:34.351Z,18.60
2019-06-20T07:13:02.883Z,18.40
2019-06-20T07:15:32.126Z,18.50
2019-06-20T07:18:00.670Z,18.40
2019-06-20T07:20:29.294Z,18.50
2019-06-20T07:22:57.879Z,18.30
2019-06-20T07:25:26.519Z,18.20
2019-06-20T07:27:58.217Z,18.30
2019-06-20T07:30:27.328Z,18.40
2019-06-20T07:32:55.871Z,18.30
2019-06-20T07:35:24.527Z,18.10
2019-06-20T07:37:53.185Z,18.20
2019-06-20T07:40:23.270Z,18.10
2019-06-20T07:42:51.830Z,18.00
2019-06-20T07:45:27.023Z,17.90
2019-06-20T07:47:53.794Z,18.00
2019-06-20T07:50:22.545Z,18.10
2019-06-20T07:53:01.484Z,18.00
2019-06-20T07:55:21.323Z,17.90
2019-06-20T07:57:49.882Z,18.00
2019-06-20T08:00:20.075Z,18.10
2019-06-20T08:02:48.647Z,18.00
2019-06-20T08:05:18.821Z,17.90
2019-06-20T08:07:47.385Z,17.90
2019-06-20T08:10:18.067Z,17.90
2019-06-20T08:12:46.632Z,18.00
2019-06-20T08:15:17.108Z,17.80
2019-06-20T08:17:45.688Z,17.80
2019-06-20T08:20:14.847Z,17.80
2019-06-20T08:22:43.864Z,17.80
2019-06-20T08:25:15.876Z,17.90
2019-06-20T08:27:53.956Z,18.00
2019-06-20T08:30:31.514Z,18.20
2019-06-20T08:33:01.880Z,18.30
2019-06-20T08:35:31.903Z,18.30
2019-06-20T08:38:01.389Z,18.40
2019-06-20T08:40:33.204Z,18.40
2019-06-20T08:43:02.233Z,18.30
2019-06-20T08:45:33.643Z,18.20
2019-06-20T08:48:02.740Z,18.20
2019-06-20T08:50:32.358Z,18.50
2019-06-20T08:53:01.667Z,18.70
2019-06-20T08:55:30.908Z,19.00
2019-06-20T08:58:01.269Z,19.00
2019-06-20T09:00:31.870Z,19.20
2019-06-20T09:03:00.648Z,19.70
2019-06-20T09:05:30.840Z,19.60
2019-06-20T09:10:38.474Z,20.40
2019-06-20T09:13:08.487Z,20.40
2019-06-20T09:15:37.183Z,20.50
2019-06-20T09:18:07.983Z,20.50
2019-06-20T09:20:37.532Z,20.30
2019-06-20T09:23:06.275Z,20.30
2019-06-20T09:25:35.209Z,20.60
2019-06-20T09:28:04.539Z,19.90
2019-06-20T09:30:34.442Z,19.60
2019-06-20T09:33:04.173Z,19.50
2019-06-20T09:35:33.169Z,19.70
2019-06-20T09:38:01.806Z,19.70
2019-06-20T09:40:30.594Z,20.10
2019-06-20T09:42:59.174Z,20.40
2019-06-20T09:45:27.875Z,20.20
2019-06-20T09:47:56.506Z,19.90
2019-06-20T09:50:25.926Z,19.90
2019-06-20T09:52:54.927Z,19.90
2019-06-20T09:55:24.763Z,19.80
2019-06-20T09:57:53.709Z,19.70
2019-06-20T10:00:25.930Z,19.50
2019-06-20T10:02:56.265Z,19.40
2019-06-20T10:05:24.916Z,19.50
2019-06-20T10:07:54.554Z,19.70
2019-06-20T10:10:33.264Z,20.00
2019-06-20T10:13:01.802Z,20.10
2019-06-20T10:15:36.030Z,20.50
2019-06-20T10:18:05.042Z,20.50
2019-06-20T10:20:39.095Z,20.10
2019-06-20T10:23:08.181Z,19.50
2019-06-20T10:25:37.360Z,19.50
2019-06-20T10:28:06.098Z,19.70
2019-06-20T10:30:34.646Z,19.60
2019-06-20T10:33:03.290Z,19.70
2019-06-20T10:35:32.386Z,19.40
2019-06-20T10:38:00.952Z,19.40
2019-06-20T10:40:30.056Z,19.50
2019-06-20T10:43:00.309Z,19.40
2019-06-20T10:45:29.926Z,19.50
2019-06-20T10:48:00.498Z,19.60
2019-06-20T10:50:32.115Z,19.50
2019-06-20T10:53:00.750Z,19.80
2019-06-20T10:55:29.395Z,19.80
2019-06-20T10:57:58.051Z,19.80
2019-06-20T11:00:31.419Z,19.80
2019-06-20T11:02:57.647Z,19.90
2019-06-20T11:05:26.956Z,20.00
2019-06-20T11:07:55.530Z,20.20
2019-06-20T11:10:24.412Z,20.30
2019-06-20T11:12:55.962Z,20.30
2019-06-20T11:15:23.938Z,20.10
2019-06-20T11:17:55.999Z,20.20
2019-06-20T11:20:23.141Z,20.60
2019-06-20T11:22:51.698Z,20.50
2019-06-20T11:25:21.394Z,20.70
2019-06-20T11:27:49.962Z,21.10
2019-06-20T11:30:24.108Z,21.70
2019-06-20T11:32:52.718Z,21.20
2019-06-20T11:35:21.344Z,20.90
2019-06-20T11:37:49.976Z,20.90
2019-06-20T11:40:18.994Z,20.10
2019-06-20T11:42:47.604Z,20.30
2019-06-20T11:45:19.628Z,20.40
2019-06-20T11:47:48.236Z,20.30
2019-06-20T11:50:19.041Z,20.60
2019-06-20T11:52:47.599Z,20.90
2019-06-20T11:55:17.503Z,20.50
2019-06-20T11:57:46.134Z,21.10
2019-06-20T12:00:15.841Z,21.70
2019-06-20T12:02:45.938Z,22.40
2019-06-20T12:05:17.148Z,22.20
2019-06-20T12:07:47.197Z,21.10
2019-06-20T12:10:19.364Z,21.10
2019-06-20T12:12:49.169Z,20.90
2019-06-20T12:15:19.190Z,20.40
2019-06-20T12:17:49.122Z,20.30
2019-06-20T12:20:18.354Z,19.80
2019-06-20T12:22:46.869Z,19.90
2019-06-20T12:25:16.198Z,19.70
2019-06-20T12:27:45.375Z,19.90
2019-06-20T12:30:16.804Z,19.40
2019-06-20T12:32:46.679Z,19.40
2019-06-20T12:35:16.318Z,19.70
2019-06-20T12:37:45.247Z,19.50
2019-06-20T12:40:15.314Z,19.30
2019-06-20T12:42:44.868Z,18.80
2019-06-20T12:45:15.474Z,19.00
2019-06-20T12:47:45.926Z,18.90
2019-06-20T12:50:16.387Z,18.90
2019-06-20T12:52:45.722Z,18.80
2019-06-20T12:55:15.127Z,18.70
2019-06-20T12:57:44.276Z,18.70
2019-06-20T13:00:14.747Z,18.80
2019-06-20T13:02:43.789Z,19.00
2019-06-20T13:05:14.690Z,18.90
2019-06-20T13:07:44.227Z,19.10
2019-06-20T13:10:14.941Z,18.90
2019-06-20T13:12:44.313Z,18.80
2019-06-20T13:15:13.977Z,18.60
2019-06-20T13:17:43.646Z,18.70
2019-06-20T13:20:13.768Z,18.60
2019-06-20T13:22:42.871Z,18.50
2019-06-20T13:25:12.469Z,18.60
2019-06-20T13:27:41.144Z,18.80
2019-06-20T13:30:10.449Z,18.70
2019-06-20T13:32:40.205Z,18.50
2019-06-20T13:35:10.508Z,18.80
2019-06-20T13:37:40.202Z,18.70
2019-06-20T13:40:13.128Z,18.60
2019-06-20T13:42:43.674Z,18.60
2019-06-20T13:45:23.884Z,18.50
2019-06-20T13:47:53.273Z,18.50
2019-06-20T13:50:24.493Z,18.50
2019-06-20T13:52:53.710Z,18.60
2019-06-20T13:55:23.303Z,18.60
2019-06-20T13:57:51.989Z,18.80
2019-06-20T14:00:23.490Z,18.60
2019-06-20T14:02:52.120Z,18.50
2019-06-20T14:05:21.833Z,18.30
2019-06-20T14:07:53.803Z,18.60
2019-06-20T14:10:20.884Z,18.50
2019-06-20T14:12:49.565Z,18.50
2019-06-20T14:15:18.556Z,18.40
2019-06-20T14:17:47.589Z,18.30
2019-06-20T14:20:18.311Z,18.40
2019-06-20T14:22:46.858Z,18.30
2019-06-20T14:25:16.258Z,18.20
2019-06-20T14:27:46.047Z,18.50
2019-06-20T14:30:15.554Z,18.40
2019-06-20T14:32:44.108Z,18.20
2019-06-20T14:35:13.533Z,18.30
2019-06-20T14:37:43.936Z,18.20
2019-06-20T14:40:13.200Z,18.20
2019-06-20T14:42:42.971Z,18.30
2019-06-20T14:45:12.743Z,18.60
2019-06-20T14:47:41.319Z,18.60
2019-06-20T14:50:12.204Z,18.60
2019-06-20T14:52:40.774Z,18.60
2019-06-20T14:55:09.673Z,18.80
2019-06-20T14:57:38.254Z,18.90
2019-06-20T15:00:08.724Z,18.90
2019-06-20T15:02:38.932Z,19.20
2019-06-20T15:05:15.273Z,19.60
2019-06-20T15:07:45.030Z,20.00
2019-06-20T15:10:15.750Z,20.50
2019-06-20T15:12:45.813Z,21.00
2019-06-20T15:15:16.139Z,20.70
2019-06-20T15:17:46.506Z,20.90
2019-06-20T15:20:16.351Z,19.80
2019-06-20T15:22:46.781Z,19.90
2019-06-20T15:25:16.156Z,20.20
2019-06-20T15:27:47.273Z,20.00
2019-06-20T15:30:15.880Z,19.20
2019-06-20T15:32:55.312Z,19.10
2019-06-20T15:35:14.799Z,19.00
2019-06-20T15:37:43.617Z,18.90
2019-06-20T15:40:12.947Z,18.80
2019-06-20T15:42:41.537Z,18.70
2019-06-20T15:45:11.208Z,18.70
2019-06-20T15:47:39.944Z,18.60
2019-06-20T15:50:10.484Z,18.50
2019-06-20T15:52:39.247Z,18.30
2019-06-20T15:55:08.943Z,18.30
2019-06-20T15:57:37.568Z,18.30
2019-06-20T16:00:08.484Z,17.90
2019-06-20T16:02:37.086Z,17.90
2019-06-20T16:05:07.994Z,18.00
2019-06-20T16:07:36.900Z,17.80
2019-06-20T16:10:11.781Z,17.50
2019-06-20T16:12:40.446Z,17.30
2019-06-20T16:15:10.604Z,17.50
2019-06-20T16:17:39.237Z,17.40
2019-06-20T16:20:09.156Z,17.40
2019-06-20T16:22:37.750Z,17.40
2019-06-20T16:25:06.769Z,17.40
2019-06-20T16:27:35.542Z,17.30
2019-06-20T16:30:06.145Z,17.50
2019-06-20T16:32:34.997Z,17.40
2019-06-20T16:35:07.790Z,17.20
2019-06-20T16:37:36.734Z,17.10
2019-06-20T16:40:09.690Z,17.00
2019-06-20T16:42:38.524Z,17.10
2019-06-20T16:45:08.222Z,17.00
2019-06-20T16:47:36.851Z,17.10
2019-06-20T16:50:07.271Z,16.90
2019-06-20T16:52:35.911Z,16.90
2019-06-20T16:55:06.799Z,17.00
2019-06-20T16:57:35.388Z,17.00
2019-06-20T17:00:07.365Z,17.00
2019-06-20T17:02:36.433Z,16.90
2019-06-20T17:05:06.671Z,16.80
2019-06-20T17:07:35.278Z,17.00
2019-06-20T17:10:06.108Z,16.90
2019-06-20T17:12:34.680Z,17.00
2019-06-20T17:15:03.477Z,17.00
2019-06-20T17:17:33.056Z,17.10
2019-06-20T17:20:01.733Z,16.90
2019-06-20T17:22:30.889Z,17.00
2019-06-20T17:24:59.827Z,16.90
2019-06-20T17:27:28.379Z,16.80
2019-06-20T17:29:56.939Z,16.70
2019-06-20T17:32:25.681Z,16.80
2019-06-20T17:34:54.194Z,16.60
2019-06-20T17:37:22.776Z,16.60
2019-06-20T17:39:51.548Z,16.60
2019-06-20T17:42:20.067Z,16.60
2019-06-20T17:44:48.642Z,16.40
2019-06-20T17:55:57.210Z,16.00
2019-06-20T17:58:25.753Z,15.90
2019-06-20T18:00:54.227Z,16.10
2019-06-20T18:03:23.136Z,15.90
2019-06-20T18:05:51.691Z,15.80
2019-06-20T18:08:20.637Z,16.00
2019-06-20T18:10:49.738Z,16.00
2019-06-20T18:13:19.078Z,16.10
2019-06-20T18:15:48.163Z,16.10
2019-06-20T18:18:16.788Z,16.00
2019-06-20T18:20:45.458Z,16.00
2019-06-20T18:23:14.016Z,16.10
2019-06-20T18:25:43.607Z,16.20
2019-06-20T18:28:12.214Z,16.10
2019-06-20T18:30:43.026Z,16.00
2019-06-20T18:33:13.239Z,16.00
2019-06-20T18:35:41.918Z,16.10
2019-06-20T18:38:10.833Z,16.10
2019-06-20T18:40:39.408Z,16.00
2019-06-20T18:43:08.000Z,16.00
2019-06-20T18:45:36.617Z,16.00
2019-06-20T18:48:05.592Z,16.00
2019-06-20T18:50:34.114Z,16.00
2019-06-20T18:53:02.757Z,15.90
2019-06-20T18:55:31.398Z,15.80
2019-06-20T18:57:59.969Z,15.80
2019-06-20T19:00:34.762Z,15.80
2019-06-20T19:02:59.386Z,15.90
2019-06-20T19:05:28.298Z,15.70
2019-06-20T19:07:56.934Z,15.80
2019-06-20T19:10:25.598Z,15.80
2019-06-20T19:12:54.207Z,15.60
2019-06-20T19:15:23.851Z,15.60
2019-06-20T19:17:52.373Z,15.80
2019-06-20T19:20:21.770Z,15.70
2019-06-20T19:22:50.391Z,15.80
2019-06-20T19:25:19.681Z,15.70
2019-06-20T19:27:48.229Z,15.80
2019-06-20T19:30:18.226Z,15.60
2019-06-20T19:32:46.692Z,15.50
2019-06-20T19:35:15.597Z,15.50
2019-06-20T19:37:44.267Z,15.50
2019-06-20T19:40:14.424Z,15.60
2019-06-20T19:42:42.985Z,15.60
2019-06-20T19:45:13.029Z,15.50
2019-06-20T19:47:42.309Z,15.50
2019-06-20T19:50:11.692Z,15.50
2019-06-20T19:52:40.993Z,15.50
2019-06-20T19:55:10.384Z,15.40
2019-06-20T19:57:39.161Z,15.20
2019-06-20T20:00:08.802Z,15.40
2019-06-20T20:02:37.493Z,15.20
2019-06-20T20:05:19.070Z,15.10
2019-06-20T20:07:40.619Z,15.00
2019-06-20T20:10:10.815Z,14.90
2019-06-20T20:12:39.422Z,14.90
2019-06-20T20:15:09.613Z,14.80
2019-06-20T20:17:38.127Z,14.70
2019-06-20T20:20:07.904Z,14.70
2019-06-20T20:22:36.495Z,14.60
2019-06-20T20:25:08.606Z,14.70
2019-06-20T20:27:37.237Z,14.70
2019-06-20T20:30:09.098Z,14.80
2019-06-20T20:32:37.745Z,14.60
2019-06-20T20:35:06.511Z,14.60
2019-06-20T20:37:40.115Z,14.70
2019-06-20T20:40:11.239Z,14.70
2019-06-20T20:42:42.324Z,14.70
2019-06-20T20:45:11.173Z,14.70
2019-06-20T20:47:42.851Z,14.80
2019-06-20T20:50:12.021Z,14.60
2019-06-20T20:52:40.908Z,14.70
2019-06-20T20:55:11.634Z,14.50
2019-06-20T20:57:41.070Z,14.50
2019-06-20T21:00:12.702Z,14.40
2019-06-20T21:02:41.266Z,14.50
2019-06-20T21:05:10.048Z,14.30
2019-06-20T21:07:39.321Z,14.30
2019-06-20T21:10:08.738Z,14.40
2019-06-20T21:12:37.322Z,14.50
2019-06-20T21:15:09.589Z,14.40
2019-06-20T21:17:38.275Z,14.30
2019-06-20T21:20:08.944Z,14.30
2019-06-20T21:22:39.174Z,14.30
2019-06-20T21:25:08.169Z,14.30
2019-06-20T21:27:36.914Z,14.30
2019-06-20T21:30:08.828Z,14.40
2019-06-20T21:32:37.649Z,14.30
2019-06-20T21:35:08.236Z,14.30
2019-06-20T21:37:36.889Z,14.30
2019-06-20T21:40:06.689Z,14.40
2019-06-20T21:42:35.871Z,14.30
2019-06-20T21:45:07.054Z,14.40
2019-06-20T21:47:35.617Z,14.30
2019-06-20T21:50:06.919Z,14.20
2019-06-20T21:52:35.660Z,14.20
2019-06-20T21:55:05.916Z,14.30
2019-06-20T21:57:34.486Z,14.30
2019-06-20T22:00:05.284Z,14.30
2019-06-20T22:02:33.972Z,14.30
2019-06-20T22:05:02.868Z,14.30
2019-06-20T22:07:31.481Z,14.20
2019-06-20T22:10:00.243Z,14.30
2019-06-20T22:12:28.820Z,14.30
2019-06-20T22:14:57.464Z,14.30
2019-06-20T22:17:26.084Z,14.40
2019-06-20T22:19:54.752Z,14.20
2019-06-20T22:22:23.600Z,14.30
2019-06-20T22:24:52.136Z,14.40
2019-06-20T22:27:20.738Z,14.30
2019-06-20T22:29:49.527Z,14.30
2019-06-20T22:32:18.116Z,14.20
2019-06-20T22:34:46.702Z,14.20
2019-06-20T22:37:15.278Z,14.20
2019-06-20T22:39:43.845Z,14.20
2019-06-20T22:42:12.423Z,14.20
2019-06-20T22:44:41.040Z,14.20
2019-06-20T22:47:09.687Z,14.30
2019-06-20T22:49:38.251Z,14.30
2019-06-20T22:52:07.015Z,14.30
2019-06-20T22:54:35.646Z,14.40
2019-06-20T22:57:04.300Z,14.40
2019-06-20T22:59:32.862Z,14.30
2019-06-20T23:02:01.418Z,14.40
2019-06-20T23:04:29.991Z,14.40
2019-06-20T23:06:58.551Z,14.30
2019-06-20T23:09:27.710Z,14.40
2019-06-20T23:11:56.363Z,14.30
2019-06-20T23:14:24.921Z,14.30
2019-06-20T23:16:53.485Z,14.30
2019-06-20T23:19:22.022Z,14.30
2019-06-20T23:21:50.629Z,14.40
2019-06-20T23:24:19.181Z,14.40
2019-06-20T23:26:47.738Z,14.30
2019-06-20T23:29:22.606Z,14.30
2019-06-20T23:31:54.268Z,14.30
2019-06-20T23:34:22.903Z,14.30
2019-06-20T23:36:51.652Z,14.20
2019-06-20T23:39:20.351Z,14.30
2019-06-20T23:41:48.990Z,14.20
2019-06-20T23:44:17.674Z,14.30
2019-06-20T23:46:46.312Z,14.20
2019-06-20T23:49:14.931Z,14.20
2019-06-20T23:51:45.150Z,14.30
2019-06-20T23:54:13.728Z,14.30
2019-06-20T23:56:42.283Z,14.30
2019-06-20T23:59:12.408Z,14.20
